createdAt,value
2018-04-17T00:01:38.171Z,10.98
2018-04-17T00:06:41.535Z,9.57
2018-04-17T00:11:45.269Z,10.20
2018-04-17T00:17:13.296Z,9.30
2018-04-17T00:22:17.038Z,10.80
2018-04-17T00:27:21.591Z,9.02
2018-04-17T00:32:25.379Z,9.73
2018-04-17T00:37:32.306Z,10.17
2018-04-17T00:42:35.928Z,13.83
2018-04-17T00:47:42.023Z,10.40
2018-04-17T00:52:45.264Z,10.50
2018-04-17T00:57:49.724Z,11.67
2018-04-17T01:02:54.518Z,15.50
2018-04-17T01:07:57.739Z,10.03
2018-04-17T01:13:01.495Z,12.23
2018-04-17T01:18:05.158Z,10.40
2018-04-17T01:23:08.387Z,11.83
2018-04-17T01:28:11.699Z,14.60
2018-04-17T01:33:17.782Z,13.97
2018-04-17T01:38:21.092Z,12.43
2018-04-17T01:43:26.009Z,13.40
2018-04-17T01:48:29.460Z,10.90
2018-04-17T01:53:33.127Z,11.17
2018-04-17T01:58:39.595Z,9.07
2018-04-17T02:03:42.966Z,11.90
2018-04-17T02:08:46.594Z,8.50
2018-04-17T02:13:50.199Z,10.87
2018-04-17T02:18:53.914Z,12.27
2018-04-17T02:23:57.528Z,11.10
2018-04-17T02:29:00.764Z,8.37
2018-04-17T02:34:03.984Z,9.20
2018-04-17T02:39:07.248Z,13.80
2018-04-17T02:44:10.890Z,14.37
2018-04-17T02:49:14.141Z,15.07
2018-04-17T02:54:17.436Z,14.77
2018-04-17T02:59:20.664Z,16.10
2018-04-17T03:04:23.888Z,15.87
2018-04-17T03:09:27.564Z,18.67
2018-04-17T03:14:30.826Z,16.00
2018-04-17T03:19:34.081Z,19.83
2018-04-17T03:24:37.321Z,14.57
2018-04-17T03:29:41.537Z,13.63
2018-04-17T03:34:44.751Z,14.93
2018-04-17T03:39:50.434Z,11.47
2018-04-17T03:44:53.710Z,13.77
2018-04-17T03:49:56.946Z,16.03
2018-04-17T03:55:00.184Z,14.03
2018-04-17T04:00:03.404Z,11.03
2018-04-17T04:05:06.613Z,14.70
2018-04-17T04:10:09.938Z,15.07
2018-04-17T04:15:13.151Z,14.20
2018-04-17T04:20:28.646Z,17.93
2018-04-17T04:31:16.527Z,9.87
2018-04-17T04:36:20.139Z,9.17
2018-04-17T04:41:23.776Z,11.10
2018-04-17T04:46:27.032Z,13.20
2018-04-17T04:51:30.260Z,10.57
2018-04-17T04:56:33.544Z,11.83
2018-04-17T05:01:36.747Z,9.03
2018-04-17T05:06:39.972Z,12.33
2018-04-17T05:11:43.189Z,13.97
2018-04-17T05:16:46.465Z,10.33
2018-04-17T05:21:49.709Z,15.67
2018-04-17T05:26:53.374Z,13.83
2018-04-17T05:31:57.286Z,13.27
2018-04-17T05:37:00.500Z,16.83
2018-04-17T05:42:03.736Z,13.07
2018-04-17T05:47:06.939Z,11.47
2018-04-17T05:52:10.151Z,12.03
2018-04-17T05:57:14.040Z,15.97
2018-04-17T06:02:17.261Z,15.37
2018-04-17T06:07:20.466Z,16.80
2018-04-17T06:12:23.985Z,12.10
2018-04-17T06:17:27.218Z,13.20
2018-04-17T06:22:30.442Z,14.27
2018-04-17T06:27:33.672Z,13.07
2018-04-17T06:32:36.928Z,11.27
2018-04-17T06:37:40.642Z,13.60
2018-04-17T06:42:43.966Z,11.73
2018-04-17T06:47:47.593Z,13.93
2018-04-17T06:52:50.812Z,12.67
2018-04-17T06:57:54.048Z,11.03
2018-04-17T07:02:57.361Z,9.83
2018-04-17T07:08:00.695Z,13.27
2018-04-17T07:13:03.927Z,12.43
2018-04-17T07:18:07.142Z,13.10
2018-04-17T07:23:10.376Z,13.30
2018-04-17T07:28:13.606Z,10.77
2018-04-17T07:33:16.831Z,14.55
2018-04-17T07:38:20.536Z,10.95
2018-04-17T07:43:23.846Z,12.37
2018-04-17T07:48:38.896Z,10.98
2018-04-17T07:53:42.125Z,12.23
2018-04-17T07:58:45.369Z,14.60
2018-04-17T08:03:49.555Z,12.82
2018-04-17T08:08:53.208Z,13.98
2018-04-17T08:13:56.697Z,15.15
2018-04-17T08:19:00.535Z,11.35
2018-04-17T08:24:04.325Z,14.07
2018-04-17T08:29:07.848Z,14.70
2018-04-17T08:34:11.066Z,12.90
2018-04-17T08:39:14.327Z,10.25
2018-04-17T08:44:18.127Z,13.10
2018-04-17T08:49:21.589Z,12.00
2018-04-17T08:54:24.922Z,12.95
2018-04-17T08:59:28.537Z,9.40
2018-04-17T09:04:31.767Z,10.57
2018-04-17T09:09:35.122Z,9.32
2018-04-17T09:14:39.537Z,11.27
2018-04-17T09:19:42.767Z,7.25
2018-04-17T09:24:45.988Z,7.65
2018-04-17T09:29:49.603Z,10.85
2018-04-17T09:34:53.311Z,7.75
2018-04-17T09:39:56.920Z,9.25
2018-04-17T09:45:00.151Z,7.12
2018-04-17T09:50:03.361Z,7.35
2018-04-17T09:55:06.600Z,6.60
2018-04-17T10:00:09.837Z,5.20
2018-04-17T10:05:13.046Z,5.20
2018-04-17T10:10:16.268Z,6.80
2018-04-17T10:15:19.490Z,6.32
2018-04-17T10:20:22.718Z,5.62
2018-04-17T10:25:25.942Z,6.57
2018-04-17T10:30:29.162Z,6.05
2018-04-17T10:35:33.004Z,9.30
2018-04-17T10:40:36.641Z,5.90
2018-04-17T10:45:39.981Z,7.03
2018-04-17T10:50:43.202Z,9.23
2018-04-17T10:55:46.424Z,5.22
2018-04-17T11:00:49.647Z,6.53
2018-04-17T11:05:53.267Z,6.03
2018-04-17T11:10:56.941Z,7.43
2018-04-17T11:16:00.186Z,7.65
2018-04-17T11:21:04.006Z,8.57
2018-04-17T11:26:07.626Z,7.50
2018-04-17T11:31:10.879Z,8.05
2018-04-17T11:36:14.187Z,8.60
2018-04-17T11:41:17.420Z,7.72
2018-04-17T11:46:20.646Z,7.12
2018-04-17T11:51:24.349Z,5.10
2018-04-17T11:56:27.561Z,5.68
2018-04-17T12:01:31.271Z,7.18
2018-04-17T12:06:34.889Z,4.40
2018-04-17T12:11:38.116Z,6.57
2018-04-17T12:16:41.349Z,4.65
2018-04-17T12:21:44.574Z,1.73
2018-04-17T12:26:47.804Z,2.70
2018-04-17T12:31:51.022Z,6.12
2018-04-17T12:36:55.358Z,5.87
2018-04-17T12:41:58.984Z,5.05
2018-04-17T12:47:02.194Z,2.78
2018-04-17T12:52:05.428Z,2.37
2018-04-17T12:57:08.653Z,2.67
2018-04-17T13:02:11.876Z,1.17
2018-04-17T13:07:15.112Z,2.20
2018-04-17T13:12:18.339Z,1.20
2018-04-17T13:17:21.710Z,2.42
2018-04-17T13:22:25.364Z,2.33
2018-04-17T13:27:28.592Z,1.67
2018-04-17T13:32:31.817Z,1.62
2018-04-17T13:37:35.032Z,3.37
2018-04-17T13:42:38.251Z,3.72
2018-04-17T13:47:41.975Z,2.30
2018-04-17T13:52:45.228Z,1.98
2018-04-17T13:57:48.446Z,2.17
2018-04-17T14:02:51.671Z,3.72
2018-04-17T14:07:55.103Z,1.50
2018-04-17T14:12:58.778Z,2.20
2018-04-17T14:18:02.010Z,2.78
2018-04-17T14:23:05.599Z,1.95
2018-04-17T14:28:08.819Z,1.12
2018-04-17T14:33:12.042Z,4.85
2018-04-17T14:38:15.651Z,3.05
2018-04-17T14:43:18.890Z,1.52
2018-04-17T14:48:22.402Z,1.48
2018-04-17T14:53:26.122Z,2.87
2018-04-17T14:58:29.345Z,1.87
2018-04-17T15:03:32.642Z,2.30
2018-04-17T15:08:36.258Z,2.08
2018-04-17T15:13:39.483Z,1.50
2018-04-17T15:18:42.739Z,1.02
2018-04-17T15:23:46.347Z,1.12
2018-04-17T15:45:16.069Z,3.45
2018-04-17T15:50:19.912Z,1.30
2018-04-17T15:55:23.305Z,2.45
2018-04-17T16:11:24.765Z,2.05
2018-04-17T16:16:31.031Z,6.03
2018-04-17T16:21:34.488Z,4.05
2018-04-17T16:26:37.712Z,1.35
2018-04-17T16:31:41.026Z,1.90
2018-04-17T16:36:44.240Z,1.23
2018-04-17T16:41:47.951Z,1.73
2018-04-17T16:46:51.569Z,1.55
2018-04-17T16:51:55.188Z,3.37
2018-04-17T16:56:58.867Z,1.48
2018-04-17T17:02:02.201Z,1.95
2018-04-17T17:07:05.424Z,2.17
2018-04-17T17:12:09.502Z,3.70
2018-04-17T17:17:12.724Z,1.48
2018-04-17T17:22:15.948Z,1.50
2018-04-17T17:27:19.212Z,1.52
2018-04-17T17:32:22.484Z,2.20
2018-04-17T17:37:25.695Z,1.20
2018-04-17T17:42:29.074Z,1.52
2018-04-17T17:47:32.800Z,1.98
2018-04-17T17:52:36.407Z,3.87
2018-04-17T17:57:39.617Z,2.75
2018-04-17T18:02:43.235Z,2.97
2018-04-17T18:07:46.885Z,4.28
2018-04-17T18:12:50.119Z,3.12
2018-04-17T18:17:53.388Z,1.77
2018-04-17T18:22:56.724Z,2.62
2018-04-17T18:27:59.987Z,1.60
2018-04-17T18:33:03.599Z,2.60
2018-04-17T18:38:07.212Z,1.75
2018-04-17T18:43:11.014Z,6.20
2018-04-17T18:48:14.256Z,4.68
2018-04-17T18:53:17.470Z,2.10
2018-04-17T18:58:20.698Z,3.00
2018-04-17T19:03:23.931Z,3.95
2018-04-17T19:08:27.172Z,4.10
2018-04-17T19:13:30.400Z,2.92
2018-04-17T19:18:33.630Z,3.28
2018-04-17T19:23:36.879Z,2.53
2018-04-17T19:28:40.515Z,3.33
2018-04-17T19:33:43.894Z,2.50
2018-04-17T19:38:47.593Z,4.78
2018-04-17T19:43:51.843Z,3.58
2018-04-17T19:48:55.480Z,2.17
2018-04-17T19:53:58.768Z,3.15
2018-04-17T19:59:02.410Z,3.62
2018-04-17T20:04:05.634Z,2.83
2018-04-17T20:09:09.500Z,2.70
2018-04-17T20:14:13.212Z,3.12
2018-04-17T20:19:16.427Z,4.25
2018-04-17T20:24:20.075Z,3.28
2018-04-17T20:29:23.350Z,6.07
2018-04-17T20:34:27.034Z,6.15
2018-04-17T20:39:30.290Z,3.83
2018-04-17T20:44:33.686Z,3.45
2018-04-17T20:49:37.575Z,4.93
2018-04-17T20:54:40.815Z,4.95
2018-04-17T20:59:44.722Z,5.40
2018-04-17T21:04:47.960Z,4.78
2018-04-17T21:09:51.220Z,3.58
2018-04-17T21:14:54.469Z,5.18
2018-04-17T21:19:57.848Z,5.62
2018-04-17T21:25:01.627Z,9.10
2018-04-17T21:30:05.509Z,7.53
2018-04-17T21:35:09.257Z,8.95
2018-04-17T21:40:12.488Z,10.30
2018-04-17T21:45:16.872Z,7.43
2018-04-17T21:50:20.239Z,8.95
2018-04-17T21:55:23.689Z,9.82
2018-04-17T22:00:27.236Z,8.40
2018-04-17T22:05:31.290Z,12.25
2018-04-17T22:10:34.559Z,8.25
2018-04-17T22:15:37.798Z,8.68
2018-04-17T22:20:41.117Z,9.30
2018-04-17T22:25:44.475Z,10.30
2018-04-17T22:30:48.980Z,10.13
2018-04-17T22:35:52.394Z,9.88
2018-04-17T22:40:56.429Z,8.90
2018-04-17T22:45:59.793Z,7.20
2018-04-17T22:51:03.023Z,9.75
2018-04-17T22:56:07.258Z,8.38
2018-04-17T23:01:10.683Z,7.57
2018-04-17T23:06:14.386Z,12.37
2018-04-17T23:11:17.996Z,6.50
2018-04-17T23:16:21.720Z,8.70
2018-04-17T23:21:25.429Z,7.03
2018-04-17T23:26:29.052Z,7.85
2018-04-17T23:31:32.703Z,9.52
2018-04-17T23:36:36.024Z,8.70
2018-04-17T23:41:39.251Z,8.50
2018-04-17T23:46:42.575Z,10.57
2018-04-17T23:51:45.968Z,7.68
2018-04-17T23:56:50.642Z,7.93
